sensor_id;sensor_type;location;lat;lon;timestamp;P1;durP1;ratioP1;P2;durP2;ratioP2
48813;SDS011;34634;44.108;3.074;2022-09-09T00:00:23;6.47;;;1.55;;
48813;SDS011;34634;44.108;3.074;2022-09-09T00:02:53;5.70;;;1.48;;
48813;SDS011;34634;44.108;3.074;2022-09-09T00:05:26;5.18;;;1.30;;
48813;SDS011;34634;44.108;3.074;2022-09-09T00:07:55;5.47;;;1.20;;
48813;SDS011;34634;44.108;3.074;2022-09-09T00:10:42;5.15;;;1.30;;
48813;SDS011;34634;44.108;3.074;2022-09-09T00:15:59;4.38;;;1.00;;
48813;SDS011;34634;44.108;3.074;2022-09-09T00:18:28;5.57;;;1.38;;
48813;SDS011;34634;44.108;3.074;2022-09-09T00:21:05;4.10;;;1.13;;
48813;SDS011;34634;44.108;3.074;2022-09-09T00:23:34;6.78;;;1.45;;
48813;SDS011;34634;44.108;3.074;2022-09-09T00:28:28;3.08;;;0.90;;
48813;SDS011;34634;44.108;3.074;2022-09-09T00:31:01;3.60;;;1.17;;
48813;SDS011;34634;44.108;3.074;2022-09-09T00:33:34;1.95;;;0.80;;
48813;SDS011;34634;44.108;3.074;2022-09-09T00:36:00;4.22;;;1.20;;
48813;SDS011;34634;44.108;3.074;2022-09-09T00:38:31;6.93;;;1.20;;
48813;SDS011;34634;44.108;3.074;2022-09-09T00:41:08;4.30;;;1.20;;
48813;SDS011;34634;44.108;3.074;2022-09-09T00:43:38;8.30;;;1.30;;
48813;SDS011;34634;44.108;3.074;2022-09-09T00:48:48;4.70;;;1.42;;
48813;SDS011;34634;44.108;3.074;2022-09-09T00:51:25;1.85;;;1.00;;
48813;SDS011;34634;44.108;3.074;2022-09-09T00:56:36;4.60;;;1.40;;
48813;SDS011;34634;44.108;3.074;2022-09-09T00:59:12;3.85;;;1.23;;
48813;SDS011;34634;44.108;3.074;2022-09-09T01:01:40;4.80;;;1.23;;
48813;SDS011;34634;44.108;3.074;2022-09-09T01:04:09;3.00;;;1.30;;
48813;SDS011;34634;44.108;3.074;2022-09-09T01:06:41;3.92;;;1.20;;
48813;SDS011;34634;44.108;3.074;2022-09-09T01:14:29;4.45;;;1.10;;
48813;SDS011;34634;44.108;3.074;2022-09-09T01:16:59;4.28;;;1.25;;
48813;SDS011;34634;44.108;3.074;2022-09-09T01:19:33;6.43;;;1.10;;
48813;SDS011;34634;44.108;3.074;2022-09-09T01:22:14;2.85;;;1.20;;
48813;SDS011;34634;44.108;3.074;2022-09-09T01:25:01;9.00;;;1.10;;
48813;SDS011;34634;44.108;3.074;2022-09-09T01:27:31;4.72;;;1.10;;
48813;SDS011;34634;44.108;3.074;2022-09-09T01:29:58;6.78;;;1.20;;
48813;SDS011;34634;44.108;3.074;2022-09-09T01:32:41;4.65;;;1.30;;
48813;SDS011;34634;44.108;3.074;2022-09-09T01:35:31;2.75;;;0.95;;
48813;SDS011;34634;44.108;3.074;2022-09-09T01:37:55;6.38;;;1.38;;
48813;SDS011;34634;44.108;3.074;2022-09-09T01:40:22;3.72;;;1.30;;
48813;SDS011;34634;44.108;3.074;2022-09-09T01:42:48;3.28;;;1.05;;
48813;SDS011;34634;44.108;3.074;2022-09-09T01:45:14;7.13;;;1.38;;
48813;SDS011;34634;44.108;3.074;2022-09-09T01:47:41;7.18;;;0.98;;
48813;SDS011;34634;44.108;3.074;2022-09-09T01:50:08;5.72;;;1.02;;
48813;SDS011;34634;44.108;3.074;2022-09-09T01:52:36;6.15;;;1.30;;
48813;SDS011;34634;44.108;3.074;2022-09-09T01:55:03;10.05;;;1.20;;
48813;SDS011;34634;44.108;3.074;2022-09-09T01:57:37;3.10;;;1.20;;
48813;SDS011;34634;44.108;3.074;2022-09-09T02:00:06;7.85;;;1.42;;
48813;SDS011;34634;44.108;3.074;2022-09-09T02:02:39;6.53;;;1.20;;
48813;SDS011;34634;44.108;3.074;2022-09-09T02:08:26;4.55;;;1.10;;
48813;SDS011;34634;44.108;3.074;2022-09-09T02:10:32;1.77;;;0.88;;
48813;SDS011;34634;44.108;3.074;2022-09-09T02:13:07;4.75;;;1.23;;
48813;SDS011;34634;44.108;3.074;2022-09-09T02:15:38;4.53;;;1.30;;
48813;SDS011;34634;44.108;3.074;2022-09-09T02:18:08;8.50;;;1.20;;
48813;SDS011;34634;44.108;3.074;2022-09-09T02:20:36;8.20;;;1.65;;
48813;SDS011;34634;44.108;3.074;2022-09-09T02:23:04;4.90;;;1.20;;
48813;SDS011;34634;44.108;3.074;2022-09-09T02:25:32;5.57;;;1.15;;
48813;SDS011;34634;44.108;3.074;2022-09-09T02:27:59;4.65;;;1.15;;
48813;SDS011;34634;44.108;3.074;2022-09-09T02:30:27;6.53;;;1.48;;
48813;SDS011;34634;44.108;3.074;2022-09-09T02:32:54;5.00;;;1.30;;
48813;SDS011;34634;44.108;3.074;2022-09-09T02:35:23;6.57;;;1.00;;
48813;SDS011;34634;44.108;3.074;2022-09-09T02:37:50;6.00;;;1.40;;
48813;SDS011;34634;44.108;3.074;2022-09-09T02:40:17;2.47;;;1.00;;
48813;SDS011;34634;44.108;3.074;2022-09-09T02:42:44;3.17;;;1.05;;
48813;SDS011;34634;44.108;3.074;2022-09-09T02:45:12;5.40;;;1.42;;
48813;SDS011;34634;44.108;3.074;2022-09-09T02:47:54;7.25;;;1.42;;
48813;SDS011;34634;44.108;3.074;2022-09-09T02:50:25;3.75;;;1.10;;
48813;SDS011;34634;44.108;3.074;2022-09-09T02:55:38;3.60;;;1.17;;
48813;SDS011;34634;44.108;3.074;2022-09-09T02:58:05;7.20;;;1.42;;
48813;SDS011;34634;44.108;3.074;2022-09-09T03:00:33;6.43;;;1.42;;
48813;SDS011;34634;44.108;3.074;2022-09-09T03:03:02;5.93;;;1.20;;
48813;SDS011;34634;44.108;3.074;2022-09-09T03:05:29;2.05;;;1.10;;
48813;SDS011;34634;44.108;3.074;2022-09-09T03:07:55;3.58;;;1.23;;
48813;SDS011;34634;44.108;3.074;2022-09-09T03:10:21;7.50;;;1.10;;
48813;SDS011;34634;44.108;3.074;2022-09-09T03:12:48;3.00;;;0.90;;
48813;SDS011;34634;44.108;3.074;2022-09-09T03:15:15;2.97;;;1.17;;
48813;SDS011;34634;44.108;3.074;2022-09-09T03:17:42;4.18;;;1.15;;
48813;SDS011;34634;44.108;3.074;2022-09-09T03:20:08;3.63;;;1.10;;
48813;SDS011;34634;44.108;3.074;2022-09-09T03:22:35;5.93;;;1.23;;
48813;SDS011;34634;44.108;3.074;2022-09-09T03:25:01;5.00;;;1.33;;
48813;SDS011;34634;44.108;3.074;2022-09-09T03:27:31;8.73;;;1.20;;
48813;SDS011;34634;44.108;3.074;2022-09-09T03:29:57;6.60;;;1.33;;
48813;SDS011;34634;44.108;3.074;2022-09-09T03:32:24;4.57;;;1.40;;
48813;SDS011;34634;44.108;3.074;2022-09-09T03:34:53;5.55;;;1.10;;
48813;SDS011;34634;44.108;3.074;2022-09-09T03:37:19;5.43;;;1.02;;
48813;SDS011;34634;44.108;3.074;2022-09-09T03:39:46;5.18;;;1.10;;
48813;SDS011;34634;44.108;3.074;2022-09-09T03:42:13;2.85;;;1.17;;
48813;SDS011;34634;44.108;3.074;2022-09-09T03:44:40;4.90;;;1.10;;
48813;SDS011;34634;44.108;3.074;2022-09-09T03:47:07;5.70;;;1.30;;
48813;SDS011;34634;44.108;3.074;2022-09-09T03:49:34;5.10;;;1.30;;
48813;SDS011;34634;44.108;3.074;2022-09-09T03:52:00;7.63;;;1.40;;
48813;SDS011;34634;44.108;3.074;2022-09-09T03:54:26;4.40;;;1.05;;
48813;SDS011;34634;44.108;3.074;2022-09-09T03:56:53;4.57;;;1.35;;
48813;SDS011;34634;44.108;3.074;2022-09-09T03:59:19;3.47;;;1.10;;
48813;SDS011;34634;44.108;3.074;2022-09-09T04:01:46;6.70;;;1.08;;
48813;SDS011;34634;44.108;3.074;2022-09-09T04:04:12;7.32;;;1.17;;
48813;SDS011;34634;44.108;3.074;2022-09-09T04:06:39;2.55;;;1.20;;
48813;SDS011;34634;44.108;3.074;2022-09-09T04:09:05;3.63;;;1.15;;
48813;SDS011;34634;44.108;3.074;2022-09-09T04:11:31;2.83;;;1.10;;
48813;SDS011;34634;44.108;3.074;2022-09-09T04:13:58;3.78;;;1.15;;
48813;SDS011;34634;44.108;3.074;2022-09-09T04:16:25;3.17;;;1.30;;
48813;SDS011;34634;44.108;3.074;2022-09-09T04:18:51;4.78;;;1.40;;
48813;SDS011;34634;44.108;3.074;2022-09-09T04:21:18;6.35;;;1.40;;
48813;SDS011;34634;44.108;3.074;2022-09-09T04:23:44;5.25;;;1.08;;
48813;SDS011;34634;44.108;3.074;2022-09-09T04:26:11;9.15;;;1.55;;
48813;SDS011;34634;44.108;3.074;2022-09-09T04:28:37;4.00;;;1.30;;
48813;SDS011;34634;44.108;3.074;2022-09-09T04:31:07;2.60;;;1.50;;
48813;SDS011;34634;44.108;3.074;2022-09-09T04:33:34;6.47;;;1.48;;
48813;SDS011;34634;44.108;3.074;2022-09-09T04:36:00;5.28;;;1.25;;
48813;SDS011;34634;44.108;3.074;2022-09-09T04:38:27;5.38;;;1.58;;
48813;SDS011;34634;44.108;3.074;2022-09-09T04:40:54;3.50;;;1.20;;
48813;SDS011;34634;44.108;3.074;2022-09-09T04:43:21;9.25;;;1.73;;
48813;SDS011;34634;44.108;3.074;2022-09-09T04:45:48;8.68;;;1.55;;
48813;SDS011;34634;44.108;3.074;2022-09-09T04:48:16;3.65;;;1.30;;
48813;SDS011;34634;44.108;3.074;2022-09-09T04:50:42;5.40;;;1.70;;
48813;SDS011;34634;44.108;3.074;2022-09-09T04:53:09;5.70;;;1.75;;
48813;SDS011;34634;44.108;3.074;2022-09-09T04:55:35;4.90;;;1.35;;
48813;SDS011;34634;44.108;3.074;2022-09-09T04:58:05;4.93;;;1.30;;
48813;SDS011;34634;44.108;3.074;2022-09-09T05:00:32;6.70;;;1.90;;
48813;SDS011;34634;44.108;3.074;2022-09-09T05:03:01;5.55;;;1.63;;
48813;SDS011;34634;44.108;3.074;2022-09-09T05:05:29;4.30;;;1.30;;
48813;SDS011;34634;44.108;3.074;2022-09-09T05:08:00;3.88;;;1.58;;
48813;SDS011;34634;44.108;3.074;2022-09-09T05:10:27;4.95;;;1.52;;
48813;SDS011;34634;44.108;3.074;2022-09-09T05:12:54;3.40;;;1.48;;
48813;SDS011;34634;44.108;3.074;2022-09-09T05:15:21;6.70;;;1.55;;
48813;SDS011;34634;44.108;3.074;2022-09-09T05:17:47;7.70;;;1.50;;
48813;SDS011;34634;44.108;3.074;2022-09-09T05:20:13;4.85;;;1.75;;
48813;SDS011;34634;44.108;3.074;2022-09-09T05:22:40;6.60;;;1.40;;
48813;SDS011;34634;44.108;3.074;2022-09-09T05:25:06;3.85;;;1.60;;
48813;SDS011;34634;44.108;3.074;2022-09-09T05:27:36;4.97;;;1.98;;
48813;SDS011;34634;44.108;3.074;2022-09-09T05:30:02;2.88;;;1.40;;
48813;SDS011;34634;44.108;3.074;2022-09-09T05:32:30;5.88;;;2.00;;
48813;SDS011;34634;44.108;3.074;2022-09-09T05:34:59;8.10;;;1.60;;
48813;SDS011;34634;44.108;3.074;2022-09-09T05:37:26;5.25;;;1.27;;
48813;SDS011;34634;44.108;3.074;2022-09-09T05:39:53;6.50;;;1.70;;
48813;SDS011;34634;44.108;3.074;2022-09-09T05:42:20;4.43;;;1.35;;
48813;SDS011;34634;44.108;3.074;2022-09-09T05:44:46;6.28;;;1.63;;
48813;SDS011;34634;44.108;3.074;2022-09-09T05:47:12;3.78;;;1.60;;
48813;SDS011;34634;44.108;3.074;2022-09-09T05:49:40;6.47;;;2.05;;
48813;SDS011;34634;44.108;3.074;2022-09-09T05:52:06;4.28;;;1.85;;
48813;SDS011;34634;44.108;3.074;2022-09-09T05:54:33;7.43;;;1.60;;
48813;SDS011;34634;44.108;3.074;2022-09-09T05:56:59;8.40;;;2.10;;
48813;SDS011;34634;44.108;3.074;2022-09-09T05:59:25;11.45;;;2.10;;
48813;SDS011;34634;44.108;3.074;2022-09-09T06:01:52;4.50;;;1.85;;
48813;SDS011;34634;44.108;3.074;2022-09-09T06:04:18;4.93;;;1.77;;
48813;SDS011;34634;44.108;3.074;2022-09-09T06:06:47;10.38;;;2.28;;
48813;SDS011;34634;44.108;3.074;2022-09-09T06:09:14;5.85;;;2.00;;
48813;SDS011;34634;44.108;3.074;2022-09-09T06:11:41;11.85;;;2.45;;
48813;SDS011;34634;44.108;3.074;2022-09-09T06:14:08;5.05;;;1.70;;
48813;SDS011;34634;44.108;3.074;2022-09-09T06:16:34;7.40;;;2.10;;
48813;SDS011;34634;44.108;3.074;2022-09-09T06:19:02;8.00;;;2.15;;
48813;SDS011;34634;44.108;3.074;2022-09-09T06:23:55;8.70;;;1.90;;
48813;SDS011;34634;44.108;3.074;2022-09-09T06:26:26;6.93;;;2.08;;
48813;SDS011;34634;44.108;3.074;2022-09-09T06:28:53;7.03;;;2.20;;
48813;SDS011;34634;44.108;3.074;2022-09-09T06:31:20;8.00;;;2.28;;
48813;SDS011;34634;44.108;3.074;2022-09-09T06:33:47;3.72;;;2.08;;
48813;SDS011;34634;44.108;3.074;2022-09-09T06:36:15;6.78;;;1.90;;
48813;SDS011;34634;44.108;3.074;2022-09-09T06:38:43;6.82;;;1.58;;
48813;SDS011;34634;44.108;3.074;2022-09-09T06:41:10;7.88;;;2.33;;
48813;SDS011;34634;44.108;3.074;2022-09-09T06:43:37;6.05;;;1.95;;
48813;SDS011;34634;44.108;3.074;2022-09-09T06:46:08;3.95;;;1.77;;
48813;SDS011;34634;44.108;3.074;2022-09-09T06:48:35;5.28;;;2.03;;
48813;SDS011;34634;44.108;3.074;2022-09-09T06:53:32;5.03;;;1.90;;
48813;SDS011;34634;44.108;3.074;2022-09-09T06:55:59;3.13;;;2.05;;
48813;SDS011;34634;44.108;3.074;2022-09-09T06:58:27;9.43;;;2.08;;
48813;SDS011;34634;44.108;3.074;2022-09-09T07:01:03;5.25;;;1.77;;
48813;SDS011;34634;44.108;3.074;2022-09-09T07:03:30;3.38;;;1.95;;
48813;SDS011;34634;44.108;3.074;2022-09-09T07:05:57;7.03;;;2.17;;
48813;SDS011;34634;44.108;3.074;2022-09-09T07:08:24;7.35;;;2.28;;
48813;SDS011;34634;44.108;3.074;2022-09-09T07:10:51;4.15;;;1.63;;
48813;SDS011;34634;44.108;3.074;2022-09-09T07:13:24;4.55;;;1.90;;
48813;SDS011;34634;44.108;3.074;2022-09-09T07:15:51;7.33;;;1.93;;
48813;SDS011;34634;44.108;3.074;2022-09-09T07:18:18;7.32;;;2.03;;
48813;SDS011;34634;44.108;3.074;2022-09-09T07:20:54;5.75;;;2.22;;
48813;SDS011;34634;44.108;3.074;2022-09-09T07:23:21;8.35;;;2.28;;
48813;SDS011;34634;44.108;3.074;2022-09-09T07:25:47;6.63;;;2.15;;
48813;SDS011;34634;44.108;3.074;2022-09-09T07:28:14;6.22;;;2.30;;
48813;SDS011;34634;44.108;3.074;2022-09-09T07:30:40;4.15;;;1.85;;
48813;SDS011;34634;44.108;3.074;2022-09-09T07:33:08;4.07;;;1.85;;
48813;SDS011;34634;44.108;3.074;2022-09-09T07:35:37;4.78;;;1.80;;
48813;SDS011;34634;44.108;3.074;2022-09-09T07:38:04;7.15;;;2.30;;
48813;SDS011;34634;44.108;3.074;2022-09-09T07:40:32;5.72;;;1.90;;
48813;SDS011;34634;44.108;3.074;2022-09-09T07:42:59;2.83;;;2.05;;
48813;SDS011;34634;44.108;3.074;2022-09-09T07:45:26;4.78;;;1.73;;
48813;SDS011;34634;44.108;3.074;2022-09-09T07:47:56;8.02;;;2.65;;
48813;SDS011;34634;44.108;3.074;2022-09-09T07:50:23;5.80;;;2.08;;
48813;SDS011;34634;44.108;3.074;2022-09-09T07:52:52;5.57;;;1.90;;
48813;SDS011;34634;44.108;3.074;2022-09-09T07:55:22;4.03;;;1.60;;
48813;SDS011;34634;44.108;3.074;2022-09-09T07:57:53;3.17;;;1.70;;
48813;SDS011;34634;44.108;3.074;2022-09-09T08:00:19;2.47;;;1.60;;
48813;SDS011;34634;44.108;3.074;2022-09-09T08:02:47;3.40;;;1.25;;
48813;SDS011;34634;44.108;3.074;2022-09-09T08:05:14;3.08;;;1.40;;
48813;SDS011;34634;44.108;3.074;2022-09-09T08:07:42;4.30;;;1.88;;
48813;SDS011;34634;44.108;3.074;2022-09-09T08:10:09;4.90;;;1.80;;
48813;SDS011;34634;44.108;3.074;2022-09-09T08:12:35;5.47;;;1.52;;
48813;SDS011;34634;44.108;3.074;2022-09-09T08:15:02;3.42;;;1.48;;
48813;SDS011;34634;44.108;3.074;2022-09-09T08:17:28;4.88;;;1.33;;
48813;SDS011;34634;44.108;3.074;2022-09-09T08:19:55;2.53;;;1.10;;
48813;SDS011;34634;44.108;3.074;2022-09-09T08:22:21;4.22;;;1.20;;
48813;SDS011;34634;44.108;3.074;2022-09-09T08:24:49;2.65;;;1.25;;
48813;SDS011;34634;44.108;3.074;2022-09-09T08:27:16;3.97;;;1.50;;
48813;SDS011;34634;44.108;3.074;2022-09-09T08:29:42;1.48;;;0.90;;
48813;SDS011;34634;44.108;3.074;2022-09-09T08:32:09;2.30;;;1.10;;
48813;SDS011;34634;44.108;3.074;2022-09-09T08:34:35;1.90;;;1.10;;
48813;SDS011;34634;44.108;3.074;2022-09-09T08:37:02;3.92;;;1.30;;
48813;SDS011;34634;44.108;3.074;2022-09-09T08:39:28;1.90;;;0.90;;
48813;SDS011;34634;44.108;3.074;2022-09-09T08:44:39;5.63;;;0.93;;
48813;SDS011;34634;44.108;3.074;2022-09-09T08:54:53;0.82;;;0.50;;
48813;SDS011;34634;44.108;3.074;2022-09-09T08:57:22;1.38;;;0.60;;
48813;SDS011;34634;44.108;3.074;2022-09-09T08:59:52;1.10;;;0.50;;
48813;SDS011;34634;44.108;3.074;2022-09-09T09:02:21;0.95;;;0.52;;
48813;SDS011;34634;44.108;3.074;2022-09-09T09:04:56;2.03;;;0.60;;
48813;SDS011;34634;44.108;3.074;2022-09-09T09:07:32;2.20;;;0.50;;
48813;SDS011;34634;44.108;3.074;2022-09-09T09:10:05;1.77;;;0.57;;
48813;SDS011;34634;44.108;3.074;2022-09-09T09:12:38;2.15;;;0.45;;
48813;SDS011;34634;44.108;3.074;2022-09-09T09:15:25;1.05;;;0.52;;
48813;SDS011;34634;44.108;3.074;2022-09-09T09:17:52;2.13;;;0.70;;
48813;SDS011;34634;44.108;3.074;2022-09-09T09:20:21;1.00;;;0.47;;
48813;SDS011;34634;44.108;3.074;2022-09-09T09:22:50;1.07;;;0.47;;
48813;SDS011;34634;44.108;3.074;2022-09-09T09:25:21;1.42;;;0.40;;
48813;SDS011;34634;44.108;3.074;2022-09-09T09:30:17;1.50;;;0.70;;
48813;SDS011;34634;44.108;3.074;2022-09-09T09:32:52;2.92;;;0.60;;
48813;SDS011;34634;44.108;3.074;2022-09-09T09:35:19;1.30;;;0.47;;
48813;SDS011;34634;44.108;3.074;2022-09-09T09:37:46;1.45;;;0.70;;
48813;SDS011;34634;44.108;3.074;2022-09-09T09:40:14;4.15;;;0.70;;
48813;SDS011;34634;44.108;3.074;2022-09-09T09:43:42;1.15;;;0.60;;
48813;SDS011;34634;44.108;3.074;2022-09-09T09:45:43;1.33;;;0.40;;
48813;SDS011;34634;44.108;3.074;2022-09-09T09:48:13;1.42;;;0.50;;
48813;SDS011;34634;44.108;3.074;2022-09-09T09:51:14;1.33;;;0.50;;
48813;SDS011;34634;44.108;3.074;2022-09-09T09:53:33;2.65;;;0.55;;
48813;SDS011;34634;44.108;3.074;2022-09-09T09:56:10;3.35;;;0.68;;
48813;SDS011;34634;44.108;3.074;2022-09-09T10:01:28;1.75;;;0.60;;
48813;SDS011;34634;44.108;3.074;2022-09-09T10:03:59;1.42;;;0.63;;
48813;SDS011;34634;44.108;3.074;2022-09-09T10:06:33;4.70;;;0.70;;
48813;SDS011;34634;44.108;3.074;2022-09-09T10:09:00;2.03;;;0.70;;
48813;SDS011;34634;44.108;3.074;2022-09-09T10:14:03;0.88;;;0.52;;
48813;SDS011;34634;44.108;3.074;2022-09-09T10:19:13;1.95;;;0.60;;
48813;SDS011;34634;44.108;3.074;2022-09-09T10:29:24;1.55;;;0.60;;
48813;SDS011;34634;44.108;3.074;2022-09-09T10:34:55;1.15;;;0.50;;
48813;SDS011;34634;44.108;3.074;2022-09-09T10:40:15;1.88;;;0.90;;
48813;SDS011;34634;44.108;3.074;2022-09-09T10:42:46;1.23;;;0.50;;
48813;SDS011;34634;44.108;3.074;2022-09-09T10:53:16;4.10;;;0.55;;
48813;SDS011;34634;44.108;3.074;2022-09-09T10:55:45;2.10;;;1.05;;
48813;SDS011;34634;44.108;3.074;2022-09-09T10:58:17;3.95;;;0.40;;
48813;SDS011;34634;44.108;3.074;2022-09-09T11:00:47;1.67;;;0.80;;
48813;SDS011;34634;44.108;3.074;2022-09-09T11:03:21;1.83;;;1.08;;
48813;SDS011;34634;44.108;3.074;2022-09-09T11:08:21;2.95;;;0.60;;
48813;SDS011;34634;44.108;3.074;2022-09-09T11:10:51;0.98;;;0.43;;
48813;SDS011;34634;44.108;3.074;2022-09-09T11:16:15;1.80;;;0.63;;
48813;SDS011;34634;44.108;3.074;2022-09-09T11:18:38;3.10;;;0.80;;
48813;SDS011;34634;44.108;3.074;2022-09-09T11:21:08;4.75;;;0.73;;
48813;SDS011;34634;44.108;3.074;2022-09-09T11:23:39;3.05;;;0.60;;
48813;SDS011;34634;44.108;3.074;2022-09-09T11:26:06;3.03;;;0.80;;
48813;SDS011;34634;44.108;3.074;2022-09-09T11:33:57;2.33;;;0.88;;
48813;SDS011;34634;44.108;3.074;2022-09-09T11:39:22;4.45;;;0.70;;
48813;SDS011;34634;44.108;3.074;2022-09-09T11:41:48;5.30;;;0.93;;
48813;SDS011;34634;44.108;3.074;2022-09-09T11:44:20;1.13;;;0.60;;
48813;SDS011;34634;44.108;3.074;2022-09-09T11:46:49;1.35;;;0.60;;
48813;SDS011;34634;44.108;3.074;2022-09-09T11:49:50;1.42;;;0.60;;
48813;SDS011;34634;44.108;3.074;2022-09-09T11:52:24;4.97;;;0.63;;
48813;SDS011;34634;44.108;3.074;2022-09-09T11:54:53;7.20;;;0.73;;
48813;SDS011;34634;44.108;3.074;2022-09-09T11:57:36;2.85;;;0.90;;
48813;SDS011;34634;44.108;3.074;2022-09-09T12:00:03;4.65;;;0.80;;
48813;SDS011;34634;44.108;3.074;2022-09-09T12:02:30;2.92;;;0.57;;
48813;SDS011;34634;44.108;3.074;2022-09-09T12:05:15;10.43;;;0.90;;
48813;SDS011;34634;44.108;3.074;2022-09-09T12:07:57;4.20;;;0.88;;
48813;SDS011;34634;44.108;3.074;2022-09-09T12:10:26;4.15;;;0.70;;
48813;SDS011;34634;44.108;3.074;2022-09-09T12:12:53;3.75;;;0.57;;
48813;SDS011;34634;44.108;3.074;2022-09-09T12:15:21;2.83;;;0.60;;
48813;SDS011;34634;44.108;3.074;2022-09-09T12:17:51;2.47;;;0.50;;
48813;SDS011;34634;44.108;3.074;2022-09-09T12:23:10;3.45;;;0.93;;
48813;SDS011;34634;44.108;3.074;2022-09-09T12:28:05;8.90;;;1.00;;
48813;SDS011;34634;44.108;3.074;2022-09-09T12:30:46;3.55;;;0.80;;
48813;SDS011;34634;44.108;3.074;2022-09-09T12:33:16;1.08;;;0.52;;
48813;SDS011;34634;44.108;3.074;2022-09-09T12:35:44;1.30;;;0.50;;
48813;SDS011;34634;44.108;3.074;2022-09-09T12:38:14;1.60;;;0.60;;
48813;SDS011;34634;44.108;3.074;2022-09-09T12:40:43;4.93;;;0.93;;
48813;SDS011;34634;44.108;3.074;2022-09-09T12:43:20;2.35;;;0.93;;
48813;SDS011;34634;44.108;3.074;2022-09-09T12:45:48;1.23;;;0.70;;
48813;SDS011;34634;44.108;3.074;2022-09-09T12:48:17;0.88;;;0.45;;
48813;SDS011;34634;44.108;3.074;2022-09-09T12:50:45;4.03;;;0.80;;
48813;SDS011;34634;44.108;3.074;2022-09-09T12:55:59;1.98;;;0.50;;
48813;SDS011;34634;44.108;3.074;2022-09-09T12:58:25;2.07;;;0.40;;
48813;SDS011;34634;44.108;3.074;2022-09-09T13:00:54;2.47;;;0.55;;
48813;SDS011;34634;44.108;3.074;2022-09-09T13:03:22;1.38;;;0.45;;
48813;SDS011;34634;44.108;3.074;2022-09-09T13:05:50;2.17;;;0.77;;
48813;SDS011;34634;44.108;3.074;2022-09-09T13:08:17;4.35;;;0.90;;
48813;SDS011;34634;44.108;3.074;2022-09-09T13:10:47;5.90;;;0.70;;
48813;SDS011;34634;44.108;3.074;2022-09-09T13:13:23;10.18;;;0.82;;
48813;SDS011;34634;44.108;3.074;2022-09-09T13:15:51;6.00;;;0.70;;
48813;SDS011;34634;44.108;3.074;2022-09-09T13:18:19;3.13;;;0.68;;
48813;SDS011;34634;44.108;3.074;2022-09-09T13:20:48;1.85;;;0.70;;
48813;SDS011;34634;44.108;3.074;2022-09-09T13:23:15;3.33;;;1.40;;
48813;SDS011;34634;44.108;3.074;2022-09-09T13:25:51;6.50;;;0.90;;
48813;SDS011;34634;44.108;3.074;2022-09-09T13:28:23;7.37;;;0.93;;
48813;SDS011;34634;44.108;3.074;2022-09-09T13:31:03;12.00;;;1.55;;
48813;SDS011;34634;44.108;3.074;2022-09-09T13:33:33;4.78;;;0.90;;
48813;SDS011;34634;44.108;3.074;2022-09-09T13:36:01;2.83;;;0.60;;
48813;SDS011;34634;44.108;3.074;2022-09-09T13:38:30;10.50;;;1.00;;
48813;SDS011;34634;44.108;3.074;2022-09-09T13:43:24;2.53;;;0.93;;
48813;SDS011;34634;44.108;3.074;2022-09-09T13:45:57;4.47;;;1.20;;
48813;SDS011;34634;44.108;3.074;2022-09-09T13:48:23;4.22;;;0.95;;
48813;SDS011;34634;44.108;3.074;2022-09-09T13:50:56;4.95;;;0.80;;
48813;SDS011;34634;44.108;3.074;2022-09-09T13:53:23;4.55;;;0.90;;
48813;SDS011;34634;44.108;3.074;2022-09-09T13:55:49;1.35;;;0.65;;
48813;SDS011;34634;44.108;3.074;2022-09-09T13:58:17;8.10;;;1.10;;
48813;SDS011;34634;44.108;3.074;2022-09-09T14:00:48;2.03;;;0.80;;
48813;SDS011;34634;44.108;3.074;2022-09-09T14:03:15;2.60;;;1.00;;
48813;SDS011;34634;44.108;3.074;2022-09-09T14:05:41;3.90;;;0.82;;
48813;SDS011;34634;44.108;3.074;2022-09-09T14:08:10;4.00;;;1.15;;
48813;SDS011;34634;44.108;3.074;2022-09-09T14:10:40;1.65;;;0.82;;
48813;SDS011;34634;44.108;3.074;2022-09-09T14:13:07;2.42;;;0.80;;
48813;SDS011;34634;44.108;3.074;2022-09-09T14:15:33;3.97;;;0.73;;
48813;SDS011;34634;44.108;3.074;2022-09-09T14:17:59;6.05;;;1.00;;
48813;SDS011;34634;44.108;3.074;2022-09-09T14:20:26;2.35;;;0.60;;
48813;SDS011;34634;44.108;3.074;2022-09-09T14:22:52;4.18;;;1.02;;
48813;SDS011;34634;44.108;3.074;2022-09-09T14:25:18;2.88;;;0.68;;
48813;SDS011;34634;44.108;3.074;2022-09-09T14:27:45;3.20;;;0.98;;
48813;SDS011;34634;44.108;3.074;2022-09-09T14:30:11;3.63;;;0.95;;
48813;SDS011;34634;44.108;3.074;2022-09-09T14:32:38;5.43;;;1.00;;
48813;SDS011;34634;44.108;3.074;2022-09-09T14:35:04;9.50;;;1.00;;
48813;SDS011;34634;44.108;3.074;2022-09-09T14:37:30;2.70;;;0.75;;
48813;SDS011;34634;44.108;3.074;2022-09-09T14:39:57;3.67;;;0.70;;
48813;SDS011;34634;44.108;3.074;2022-09-09T14:42:23;2.45;;;0.80;;
48813;SDS011;34634;44.108;3.074;2022-09-09T14:44:49;6.90;;;0.90;;
48813;SDS011;34634;44.108;3.074;2022-09-09T14:47:16;1.88;;;0.63;;
48813;SDS011;34634;44.108;3.074;2022-09-09T14:49:42;2.08;;;0.60;;
48813;SDS011;34634;44.108;3.074;2022-09-09T14:52:08;3.13;;;0.65;;
48813;SDS011;34634;44.108;3.074;2022-09-09T14:54:35;2.42;;;0.55;;
48813;SDS011;34634;44.108;3.074;2022-09-09T14:57:01;4.88;;;0.50;;
48813;SDS011;34634;44.108;3.074;2022-09-09T14:59:27;1.23;;;0.60;;
48813;SDS011;34634;44.108;3.074;2022-09-09T15:01:54;2.13;;;0.68;;
48813;SDS011;34634;44.108;3.074;2022-09-09T15:04:20;2.70;;;0.73;;
48813;SDS011;34634;44.108;3.074;2022-09-09T15:06:47;2.13;;;0.77;;
48813;SDS011;34634;44.108;3.074;2022-09-09T15:09:15;2.85;;;0.70;;
48813;SDS011;34634;44.108;3.074;2022-09-09T15:11:41;1.45;;;0.65;;
48813;SDS011;34634;44.108;3.074;2022-09-09T15:14:08;1.42;;;0.60;;
48813;SDS011;34634;44.108;3.074;2022-09-09T15:16:35;1.83;;;0.60;;
48813;SDS011;34634;44.108;3.074;2022-09-09T15:19:02;2.50;;;0.90;;
48813;SDS011;34634;44.108;3.074;2022-09-09T15:21:30;1.75;;;0.55;;
48813;SDS011;34634;44.108;3.074;2022-09-09T15:23:56;2.70;;;0.68;;
48813;SDS011;34634;44.108;3.074;2022-09-09T15:26:23;6.63;;;0.80;;
48813;SDS011;34634;44.108;3.074;2022-09-09T15:28:50;1.80;;;0.60;;
48813;SDS011;34634;44.108;3.074;2022-09-09T15:34:01;2.10;;;0.60;;
48813;SDS011;34634;44.108;3.074;2022-09-09T15:36:29;4.72;;;0.80;;
48813;SDS011;34634;44.108;3.074;2022-09-09T15:38:55;2.00;;;0.70;;
48813;SDS011;34634;44.108;3.074;2022-09-09T15:41:22;2.03;;;0.70;;
48813;SDS011;34634;44.108;3.074;2022-09-09T15:43:49;2.33;;;0.77;;
48813;SDS011;34634;44.108;3.074;2022-09-09T15:48:43;1.83;;;0.70;;
48813;SDS011;34634;44.108;3.074;2022-09-09T15:51:10;2.95;;;0.85;;
48813;SDS011;34634;44.108;3.074;2022-09-09T15:53:37;3.20;;;0.73;;
48813;SDS011;34634;44.108;3.074;2022-09-09T15:56:05;2.95;;;0.88;;
48813;SDS011;34634;44.108;3.074;2022-09-09T15:58:35;2.80;;;0.90;;
48813;SDS011;34634;44.108;3.074;2022-09-09T16:01:04;4.45;;;0.80;;
48813;SDS011;34634;44.108;3.074;2022-09-09T16:03:35;3.15;;;0.80;;
48813;SDS011;34634;44.108;3.074;2022-09-09T16:06:02;2.72;;;0.98;;
48813;SDS011;34634;44.108;3.074;2022-09-09T16:08:33;2.15;;;1.00;;
48813;SDS011;34634;44.108;3.074;2022-09-09T16:11:16;4.47;;;0.98;;
48813;SDS011;34634;44.108;3.074;2022-09-09T16:13:45;5.78;;;0.85;;
48813;SDS011;34634;44.108;3.074;2022-09-09T16:16:12;4.30;;;0.90;;
48813;SDS011;34634;44.108;3.074;2022-09-09T16:18:40;3.88;;;0.85;;
48813;SDS011;34634;44.108;3.074;2022-09-09T16:21:07;3.17;;;0.77;;
48813;SDS011;34634;44.108;3.074;2022-09-09T16:23:34;3.90;;;0.85;;
48813;SDS011;34634;44.108;3.074;2022-09-09T16:26:01;1.98;;;0.60;;
48813;SDS011;34634;44.108;3.074;2022-09-09T16:28:27;3.55;;;0.88;;
48813;SDS011;34634;44.108;3.074;2022-09-09T16:30:53;3.00;;;0.90;;
48813;SDS011;34634;44.108;3.074;2022-09-09T16:33:20;2.85;;;0.85;;
48813;SDS011;34634;44.108;3.074;2022-09-09T16:35:47;2.42;;;0.80;;